createdAt,value
2022-12-22T00:00:53.303Z,97765.03
2022-12-22T00:03:38.585Z,97758.41
2022-12-22T00:06:27.814Z,97757.44
2022-12-22T00:09:13.096Z,97752.19
2022-12-22T00:11:58.364Z,97755.19
2022-12-22T00:14:43.672Z,97753.78
2022-12-22T00:17:41.263Z,97745.19
2022-12-22T00:20:31.471Z,97738.22
2022-12-22T00:23:17.132Z,97735.75
2022-12-22T00:26:02.343Z,97733.91
2022-12-22T00:28:47.678Z,97730.78
2022-12-22T00:31:33.580Z,97721.25
2022-12-22T00:34:20.013Z,97721.91
2022-12-22T00:37:05.425Z,97719.66
2022-12-22T00:39:50.608Z,97705.91
2022-12-22T00:42:35.971Z,97696.81
2022-12-22T00:45:21.364Z,97714.88
2022-12-22T00:48:06.608Z,97703.38
2022-12-22T00:50:54.793Z,97702.06
2022-12-22T00:53:40.641Z,97685.50
2022-12-22T00:56:27.416Z,97695.25
2022-12-22T00:59:15.902Z,97692.06
2022-12-22T01:02:01.369Z,97695.69
2022-12-22T01:04:46.545Z,97690.28
2022-12-22T01:07:35.246Z,97680.56
2022-12-22T01:10:20.448Z,97674.00
2022-12-22T01:13:05.853Z,97669.91
2022-12-22T01:15:51.416Z,97667.66
2022-12-22T01:18:36.763Z,97667.00
2022-12-22T01:21:22.493Z,97667.91
2022-12-22T01:24:09.102Z,97670.41
2022-12-22T01:26:54.389Z,97668.81
2022-12-22T01:29:39.835Z,97661.81
2022-12-22T01:32:27.606Z,97664.97
2022-12-22T01:35:12.970Z,97661.94
2022-12-22T01:37:58.353Z,97654.13
2022-12-22T01:40:45.357Z,97654.38
2022-12-22T01:43:38.562Z,97646.56
2022-12-22T01:46:40.774Z,97651.41
2022-12-22T01:49:28.693Z,97646.44
2022-12-22T01:52:14.419Z,97638.97
2022-12-22T01:54:59.599Z,97638.09
2022-12-22T01:57:47.107Z,97634.06
2022-12-22T02:00:32.864Z,97621.50
2022-12-22T02:03:19.195Z,97621.50
2022-12-22T02:06:20.001Z,97622.75
2022-12-22T02:09:16.413Z,97613.47
2022-12-22T02:12:16.270Z,97612.59
2022-12-22T02:15:08.573Z,97599.69
2022-12-22T02:17:58.706Z,97615.16
2022-12-22T02:20:55.810Z,97611.59
2022-12-22T02:24:06.800Z,97619.38
2022-12-22T02:26:56.737Z,97605.56
2022-12-22T02:29:47.576Z,97611.00
2022-12-22T02:32:33.245Z,97609.88
2022-12-22T02:35:18.728Z,97607.41
2022-12-22T02:38:12.194Z,97601.31
2022-12-22T02:41:06.830Z,97592.25
2022-12-22T02:44:09.197Z,97592.13
2022-12-22T02:47:02.098Z,97583.31
2022-12-22T02:49:57.318Z,97574.59
2022-12-22T02:52:49.331Z,97572.59
2022-12-22T02:55:35.754Z,97569.41
2022-12-22T02:58:20.926Z,97568.28
2022-12-22T03:01:08.017Z,97571.00
2022-12-22T03:03:53.606Z,97561.97
2022-12-22T03:06:38.807Z,97556.53
2022-12-22T03:09:24.238Z,97561.50
2022-12-22T03:12:09.570Z,97554.56
2022-12-22T03:14:54.989Z,97551.78
2022-12-22T03:17:41.714Z,97555.03
2022-12-22T03:20:27.935Z,97551.09
2022-12-22T03:23:13.285Z,97551.09
2022-12-22T03:25:54.089Z,97538.84
2022-12-22T03:28:22.854Z,97535.69
2022-12-22T03:30:56.078Z,97515.56
2022-12-22T03:33:25.232Z,97525.06
2022-12-22T03:35:52.952Z,97520.63
2022-12-22T03:38:20.758Z,97523.47
2022-12-22T03:40:48.831Z,97522.81
2022-12-22T03:43:35.870Z,97518.84
2022-12-22T03:46:24.151Z,97512.63
2022-12-22T03:49:11.289Z,97506.50
2022-12-22T03:51:42.589Z,97506.97
2022-12-22T03:54:11.318Z,97504.81
2022-12-22T03:56:39.451Z,97508.09
2022-12-22T03:59:07.305Z,97501.97
2022-12-22T04:01:39.768Z,97491.81
2022-12-22T04:04:09.241Z,97493.38
2022-12-22T04:06:36.952Z,97501.72
2022-12-22T04:09:05.041Z,97496.75
2022-12-22T04:11:50.119Z,97484.97
2022-12-22T04:14:17.896Z,97484.53
2022-12-22T04:16:45.857Z,97490.63
2022-12-22T04:19:15.988Z,97485.50
2022-12-22T04:21:44.323Z,97483.13
2022-12-22T04:24:12.868Z,97481.66
2022-12-22T04:26:41.239Z,97488.56
2022-12-22T04:29:09.164Z,97469.31
2022-12-22T04:31:36.878Z,97478.84
2022-12-22T04:34:04.739Z,97487.44
2022-12-22T04:36:33.825Z,97474.97
2022-12-22T04:39:01.496Z,97463.69
2022-12-22T04:41:29.119Z,97468.34
2022-12-22T04:43:56.837Z,97451.94
2022-12-22T04:46:24.665Z,97459.41
2022-12-22T04:48:57.899Z,97452.72
2022-12-22T04:51:28.111Z,97453.50
2022-12-22T04:53:57.169Z,97445.03
2022-12-22T04:56:24.850Z,97443.53
2022-12-22T04:58:52.525Z,97446.59
2022-12-22T05:01:20.618Z,97445.31
2022-12-22T05:03:48.696Z,97433.44
2022-12-22T05:06:16.865Z,97434.34
2022-12-22T05:08:44.597Z,97433.03
2022-12-22T05:11:13.740Z,97431.97
2022-12-22T05:13:41.409Z,97441.25
2022-12-22T05:16:11.628Z,97440.22
2022-12-22T05:18:40.967Z,97440.56
2022-12-22T05:21:11.831Z,97441.56
2022-12-22T05:23:39.562Z,97435.34
2022-12-22T05:26:07.281Z,97435.59
2022-12-22T05:28:36.446Z,97422.78
2022-12-22T05:31:05.643Z,97434.09
2022-12-22T05:33:33.842Z,97422.22
2022-12-22T05:36:01.608Z,97426.75
2022-12-22T05:38:29.700Z,97416.06
2022-12-22T05:41:03.488Z,97409.94
2022-12-22T05:43:32.250Z,97399.75
2022-12-22T05:46:04.274Z,97408.34
2022-12-22T05:48:38.180Z,97416.06
2022-12-22T05:51:07.451Z,97413.09
2022-12-22T05:53:35.325Z,97417.63
2022-12-22T05:56:03.007Z,97422.03
2022-12-22T05:58:30.740Z,97423.28
2022-12-22T06:00:59.226Z,97421.00
2022-12-22T06:03:29.754Z,97408.66
2022-12-22T06:05:58.175Z,97422.50
2022-12-22T06:08:26.612Z,97431.88
2022-12-22T06:10:55.640Z,97411.22
2022-12-22T06:13:23.302Z,97414.53
2022-12-22T06:15:51.136Z,97406.56
2022-12-22T06:18:19.226Z,97397.28
2022-12-22T06:20:48.394Z,97395.34
2022-12-22T06:23:16.138Z,97403.50
2022-12-22T06:25:43.953Z,97399.31
2022-12-22T06:28:11.637Z,97394.75
2022-12-22T06:30:39.348Z,97400.44
2022-12-22T06:33:07.008Z,97394.94
2022-12-22T06:35:34.678Z,97398.53
2022-12-22T06:38:03.775Z,97383.00
2022-12-22T06:40:31.493Z,97387.91
2022-12-22T06:43:10.880Z,97375.97
2022-12-22T06:45:40.856Z,97386.97
2022-12-22T06:48:10.072Z,97381.16
2022-12-22T06:50:37.978Z,97380.72
2022-12-22T06:53:07.613Z,97382.75
2022-12-22T06:55:35.394Z,97382.84
2022-12-22T06:58:03.203Z,97385.97
2022-12-22T07:00:31.151Z,97388.63
2022-12-22T07:02:59.081Z,97389.16
2022-12-22T07:05:27.193Z,97381.25
2022-12-22T07:07:54.914Z,97384.06
2022-12-22T07:10:44.016Z,97383.09
2022-12-22T07:13:20.411Z,97398.44
2022-12-22T07:15:57.268Z,97389.81
2022-12-22T07:18:27.411Z,97381.94
2022-12-22T07:20:55.372Z,97386.69
2022-12-22T07:23:23.150Z,97386.84
2022-12-22T07:25:52.221Z,97389.03
2022-12-22T07:28:21.211Z,97379.22
2022-12-22T07:30:50.175Z,97375.09
2022-12-22T07:33:18.153Z,97369.66
2022-12-22T07:35:46.008Z,97401.59
2022-12-22T07:38:13.972Z,97386.84
2022-12-22T07:40:42.771Z,97378.34
2022-12-22T07:43:11.199Z,97388.69
2022-12-22T07:45:39.442Z,97380.19
2022-12-22T07:48:27.421Z,97366.09
2022-12-22T07:50:54.974Z,97375.47
2022-12-22T07:53:22.634Z,97381.25
2022-12-22T07:55:50.337Z,97377.50
2022-12-22T07:58:19.418Z,97368.09
2022-12-22T08:00:47.935Z,97371.97
2022-12-22T08:03:15.718Z,97371.78
2022-12-22T08:05:44.507Z,97368.03
2022-12-22T08:08:12.239Z,97364.59
2022-12-22T08:10:39.949Z,97368.47
2022-12-22T08:13:07.616Z,97359.41
2022-12-22T08:15:38.004Z,97363.97
2022-12-22T08:18:05.780Z,97367.03
2022-12-22T08:20:33.433Z,97373.53
2022-12-22T08:23:01.159Z,97372.97
2022-12-22T08:25:28.895Z,97372.88
2022-12-22T08:27:58.393Z,97373.84
2022-12-22T08:30:26.302Z,97368.72
2022-12-22T08:32:55.456Z,97374.72
2022-12-22T08:35:23.785Z,97366.44
2022-12-22T08:37:52.502Z,97355.38
2022-12-22T08:40:23.770Z,97346.38
2022-12-22T08:42:55.786Z,97347.94
2022-12-22T08:45:23.546Z,97350.25
2022-12-22T08:47:51.619Z,97344.50
2022-12-22T08:50:20.937Z,97353.25
2022-12-22T08:52:48.689Z,97352.34
2022-12-22T08:55:16.581Z,97352.25
2022-12-22T08:57:44.357Z,97348.38
2022-12-22T09:00:13.504Z,97357.13
2022-12-22T09:02:41.804Z,97353.66
2022-12-22T09:05:10.144Z,97364.50
2022-12-22T09:07:41.084Z,97355.38
2022-12-22T09:10:10.583Z,97357.53
2022-12-22T09:12:38.421Z,97350.97
2022-12-22T09:15:08.700Z,97360.88
2022-12-22T09:17:37.870Z,97365.66
2022-12-22T09:20:06.863Z,97357.41
2022-12-22T09:22:34.782Z,97356.81
2022-12-22T09:25:03.904Z,97351.97
2022-12-22T09:27:31.749Z,97359.91
2022-12-22T09:29:59.545Z,97344.72
2022-12-22T09:32:29.028Z,97345.09
2022-12-22T09:34:56.819Z,97343.66
2022-12-22T09:37:24.794Z,97347.41
2022-12-22T09:39:52.798Z,97345.38
2022-12-22T09:42:24.002Z,97352.66
2022-12-22T09:44:52.905Z,97351.81
2022-12-22T09:47:25.619Z,97351.81
2022-12-22T09:49:57.239Z,97354.69
2022-12-22T09:52:32.440Z,97351.06
2022-12-22T09:55:00.229Z,97351.84
2022-12-22T09:57:32.404Z,97348.53
2022-12-22T10:00:07.928Z,97345.94
2022-12-22T10:02:45.535Z,97346.59
2022-12-22T10:05:28.263Z,97332.97
2022-12-22T10:08:02.880Z,97329.72
2022-12-22T10:10:32.284Z,97340.03
2022-12-22T10:13:03.512Z,97330.91
2022-12-22T10:15:37.178Z,97331.47
2022-12-22T10:18:13.349Z,97324.53
2022-12-22T10:20:41.445Z,97316.06
2022-12-22T10:23:18.142Z,97320.00
2022-12-22T10:28:59.190Z,97307.88
2022-12-22T10:31:28.614Z,97310.66
2022-12-22T10:33:58.604Z,97319.81
2022-12-22T10:36:28.853Z,97304.56
2022-12-22T10:39:01.420Z,97315.81
2022-12-22T10:41:32.519Z,97312.47
2022-12-22T10:44:05.153Z,97309.38
2022-12-22T10:46:37.784Z,97315.47
2022-12-22T10:49:24.081Z,97315.31
2022-12-22T10:51:55.293Z,97313.00
2022-12-22T10:54:29.392Z,97314.03
2022-12-22T10:57:02.616Z,97306.19
2022-12-22T10:59:32.137Z,97304.28
2022-12-22T11:02:26.217Z,97308.16
2022-12-22T11:04:55.333Z,97307.41
2022-12-22T11:07:24.678Z,97306.69
2022-12-22T11:09:52.525Z,97309.97
2022-12-22T11:12:29.022Z,97311.41
2022-12-22T11:15:04.141Z,97309.00
2022-12-22T11:17:37.220Z,97306.31
2022-12-22T11:20:33.324Z,97312.09
2022-12-22T11:23:04.507Z,97312.69
2022-12-22T11:25:41.604Z,97307.44
2022-12-22T11:28:24.744Z,97313.00
2022-12-22T11:31:08.169Z,97311.31
2022-12-22T11:33:46.769Z,97318.16
2022-12-22T11:36:26.539Z,97307.59
2022-12-22T11:39:01.523Z,97302.88
2022-12-22T11:41:43.953Z,97293.84
2022-12-22T11:44:31.697Z,97282.13
2022-12-22T11:47:07.003Z,97282.84
2022-12-22T11:50:58.573Z,97280.31
2022-12-22T11:53:07.492Z,97290.78
2022-12-22T11:55:39.926Z,97288.47
2022-12-22T11:58:25.254Z,97277.16
2022-12-22T12:01:15.399Z,97277.88
2022-12-22T12:04:22.097Z,97279.31
2022-12-22T12:07:04.882Z,97279.31
2022-12-22T12:09:43.280Z,97287.44
2022-12-22T12:12:18.932Z,97283.91
2022-12-22T12:14:54.634Z,97282.78
2022-12-22T12:17:34.521Z,97283.91
2022-12-22T12:20:19.153Z,97284.66
2022-12-22T12:23:01.066Z,97289.84
2022-12-22T12:25:38.061Z,97293.25
2022-12-22T12:28:20.321Z,97293.25
2022-12-22T12:30:54.883Z,97281.66
2022-12-22T12:33:32.558Z,97289.31
2022-12-22T12:36:08.330Z,97295.19
2022-12-22T12:41:42.256Z,97297.84
2022-12-22T12:44:14.057Z,97291.88
2022-12-22T12:47:12.848Z,97297.94
2022-12-22T12:49:57.266Z,97307.09
2022-12-22T12:52:58.284Z,97309.81
2022-12-22T12:55:33.694Z,97309.25
2022-12-22T12:58:03.397Z,97311.56
2022-12-22T13:00:50.835Z,97320.31
2022-12-22T13:06:51.639Z,97321.28
2022-12-22T13:09:49.359Z,97322.88
2022-12-22T13:12:39.814Z,97330.88
2022-12-22T13:15:32.990Z,97329.03
2022-12-22T13:18:01.687Z,97338.34
2022-12-22T13:20:32.101Z,97335.91
2022-12-22T13:23:03.376Z,97346.81
2022-12-22T13:25:41.941Z,97352.94
2022-12-22T13:28:16.831Z,97349.09
2022-12-22T13:30:48.167Z,97351.06
2022-12-22T13:33:20.554Z,97357.38
2022-12-22T13:35:52.262Z,97366.44
2022-12-22T13:38:30.232Z,97373.03
2022-12-22T13:40:59.726Z,97375.03
2022-12-22T13:43:31.281Z,97365.84
2022-12-22T13:46:02.072Z,97375.16
2022-12-22T13:48:43.543Z,97374.03
2022-12-22T13:51:19.205Z,97379.13
2022-12-22T13:54:07.714Z,97370.16
2022-12-22T13:56:39.905Z,97376.56
2022-12-22T13:59:29.005Z,97388.69
2022-12-22T14:02:02.732Z,97384.09
2022-12-22T14:04:31.555Z,97395.00
2022-12-22T14:07:11.379Z,97387.22
2022-12-22T14:09:43.867Z,97402.03
2022-12-22T14:12:15.837Z,97403.56
2022-12-22T14:14:47.057Z,97397.63
2022-12-22T14:17:23.793Z,97413.91
2022-12-22T14:19:53.690Z,97422.78
2022-12-22T14:22:24.889Z,97433.22
2022-12-22T14:24:56.136Z,97438.25
2022-12-22T14:27:32.894Z,97441.41
2022-12-22T14:30:04.427Z,97439.75
2022-12-22T14:32:38.103Z,97441.41
2022-12-22T14:35:17.897Z,97442.97
2022-12-22T14:37:45.587Z,97455.47
2022-12-22T14:40:28.864Z,97453.16
2022-12-22T14:42:57.575Z,97454.75
2022-12-22T14:45:26.989Z,97454.03
2022-12-22T14:47:56.264Z,97461.78
2022-12-22T14:50:25.999Z,97462.56
2022-12-22T14:52:55.995Z,97460.19
2022-12-22T14:55:28.540Z,97468.19
2022-12-22T14:58:00.250Z,97480.97
2022-12-22T15:00:34.170Z,97485.09
2022-12-22T15:03:04.659Z,97490.88
2022-12-22T15:05:35.631Z,97495.09
2022-12-22T15:08:08.883Z,97496.31
2022-12-22T15:10:42.292Z,97494.94
2022-12-22T15:13:17.393Z,97494.94
2022-12-22T15:15:46.647Z,97503.59
2022-12-22T15:18:16.348Z,97499.72
2022-12-22T15:20:44.216Z,97504.47
2022-12-22T15:23:14.774Z,97509.91
2022-12-22T15:25:42.867Z,97502.19
2022-12-22T15:28:11.021Z,97513.53
2022-12-22T15:30:39.424Z,97511.50
2022-12-22T15:33:14.323Z,97520.56
2022-12-22T15:35:42.950Z,97534.19
2022-12-22T15:38:14.850Z,97528.72
2022-12-22T15:40:43.183Z,97537.25
2022-12-22T15:43:22.693Z,97538.56
2022-12-22T15:45:57.261Z,97540.88
2022-12-22T15:48:30.194Z,97537.69
2022-12-22T15:50:59.270Z,97539.09
2022-12-22T15:53:27.459Z,97552.91
2022-12-22T15:55:58.491Z,97549.44
2022-12-22T15:58:28.990Z,97566.50
2022-12-22T16:00:57.247Z,97565.78
2022-12-22T16:03:26.483Z,97565.88
2022-12-22T16:05:54.694Z,97559.66
2022-12-22T16:08:28.511Z,97563.50
2022-12-22T16:10:56.234Z,97566.69
2022-12-22T16:13:26.877Z,97564.22
2022-12-22T16:15:55.205Z,97578.25
2022-12-22T16:18:22.997Z,97575.97
2022-12-22T16:20:52.618Z,97579.84
2022-12-22T16:23:23.356Z,97574.41
2022-12-22T16:25:58.837Z,97574.84
2022-12-22T16:28:28.933Z,97580.28
2022-12-22T16:30:56.820Z,97574.84
2022-12-22T16:33:24.539Z,97580.72
2022-12-22T16:35:53.617Z,97579.84
2022-12-22T16:38:21.715Z,97583.91
2022-12-22T16:40:52.661Z,97591.38
2022-12-22T16:46:15.063Z,97590.13
2022-12-22T16:48:45.458Z,97593.31
2022-12-22T16:51:18.742Z,97600.34
2022-12-22T16:53:48.267Z,97592.31
2022-12-22T16:56:19.078Z,97601.13
2022-12-22T16:58:47.778Z,97599.09
2022-12-22T17:01:26.124Z,97602.38
2022-12-22T17:03:54.258Z,97609.28
2022-12-22T17:06:23.907Z,97598.84
2022-12-22T17:08:51.688Z,97605.69
2022-12-22T17:11:23.618Z,97597.97
2022-12-22T17:13:53.916Z,97597.25
2022-12-22T17:16:23.754Z,97592.06
2022-12-22T17:18:51.580Z,97597.16
2022-12-22T17:21:21.414Z,97597.06
2022-12-22T17:23:52.367Z,97598.47
2022-12-22T17:26:23.885Z,97595.50
2022-12-22T17:28:52.221Z,97597.16
2022-12-22T17:31:22.161Z,97590.22
2022-12-22T17:33:49.964Z,97594.97
2022-12-22T17:36:27.136Z,97598.16
2022-12-22T17:38:56.528Z,97594.25
2022-12-22T17:41:24.260Z,97592.69
2022-12-22T17:43:51.995Z,97586.81
2022-12-22T17:46:21.321Z,97595.41
2022-12-22T17:48:49.537Z,97593.41
2022-12-22T17:51:19.478Z,97577.91
2022-12-22T17:53:47.897Z,97578.44
2022-12-22T17:56:22.459Z,97582.31
2022-12-22T17:58:50.696Z,97577.06
2022-12-22T18:01:27.230Z,97574.78
2022-12-22T18:03:55.940Z,97577.13
2022-12-22T18:06:26.412Z,97576.16
2022-12-22T18:08:56.247Z,97580.47
2022-12-22T18:11:26.087Z,97573.88
2022-12-22T18:13:57.086Z,97579.34
2022-12-22T18:16:24.879Z,97573.88
2022-12-22T18:18:52.729Z,97571.16
2022-12-22T18:21:23.811Z,97566.16
2022-12-22T18:23:52.948Z,97560.63
2022-12-22T18:26:23.907Z,97565.28
2022-12-22T18:28:53.747Z,97556.66
2022-12-22T18:31:22.663Z,97555.06
2022-12-22T18:33:50.768Z,97558.25
2022-12-22T18:36:20.820Z,97552.78
2022-12-22T18:38:50.163Z,97557.53
2022-12-22T18:41:22.635Z,97559.28
2022-12-22T18:43:51.040Z,97554.03
2022-12-22T18:46:20.617Z,97561.31
2022-12-22T18:48:48.758Z,97558.16
2022-12-22T18:51:20.580Z,97557.03
2022-12-22T18:53:48.881Z,97559.31
2022-12-22T18:56:16.668Z,97548.25
2022-12-22T18:58:44.716Z,97555.97
2022-12-22T19:01:18.976Z,97549.09
2022-12-22T19:03:48.770Z,97552.13
2022-12-22T19:06:18.795Z,97556.56
2022-12-22T19:08:48.232Z,97553.06
2022-12-22T19:11:17.590Z,97548.41
2022-12-22T19:13:47.849Z,97535.50
2022-12-22T19:16:19.303Z,97537.53
2022-12-22T19:18:48.448Z,97536.72
2022-12-22T19:21:17.556Z,97534.09
2022-12-22T19:23:45.908Z,97533.22
2022-12-22T19:26:22.085Z,97519.84
2022-12-22T19:28:52.009Z,97521.88
2022-12-22T19:31:24.072Z,97517.88
2022-12-22T19:33:54.292Z,97514.25
2022-12-22T19:36:25.767Z,97510.28
2022-12-22T19:39:02.658Z,97504.75
2022-12-22T19:41:42.909Z,97506.97
2022-12-22T19:44:23.075Z,97504.59
2022-12-22T19:46:52.310Z,97499.50
2022-12-22T19:49:23.440Z,97501.25
2022-12-22T19:51:51.405Z,97503.81
2022-12-22T19:54:20.303Z,97503.19
2022-12-22T19:56:52.088Z,97501.88
2022-12-22T19:59:29.532Z,97502.94
2022-12-22T20:01:59.418Z,97493.44
2022-12-22T20:04:28.754Z,97492.22
2022-12-22T20:06:56.482Z,97486.41
2022-12-22T20:09:24.245Z,97485.00
2022-12-22T20:11:51.995Z,97488.88
2022-12-22T20:14:20.386Z,97475.53
2022-12-22T20:16:48.197Z,97478.69
2022-12-22T20:19:16.427Z,97477.84
2022-12-22T20:21:45.764Z,97476.31
2022-12-22T20:24:21.982Z,97480.16
2022-12-22T20:26:54.441Z,97468.16
2022-12-22T20:29:24.384Z,97465.38
2022-12-22T20:31:52.426Z,97457.34
2022-12-22T20:34:20.245Z,97453.84
2022-12-22T20:36:49.514Z,97452.72
2022-12-22T20:39:20.364Z,97452.63
2022-12-22T20:41:52.861Z,97450.44
2022-12-22T20:44:21.053Z,97452.44
2022-12-22T20:46:49.463Z,97449.44
2022-12-22T20:49:17.897Z,97441.47
2022-12-22T20:51:46.709Z,97443.13
2022-12-22T20:54:16.844Z,97432.84
2022-12-22T20:56:49.335Z,97435.13
2022-12-22T20:59:19.446Z,97429.34
2022-12-22T21:01:53.957Z,97432.41
2022-12-22T21:04:22.346Z,97432.84
2022-12-22T21:06:52.414Z,97424.00
2022-12-22T21:09:22.418Z,97433.56
2022-12-22T21:11:51.745Z,97424.53
2022-12-22T21:14:19.959Z,97416.63
2022-12-22T21:16:49.843Z,97420.06
2022-12-22T21:19:19.785Z,97416.19
2022-12-22T21:21:48.317Z,97418.22
2022-12-22T21:24:16.566Z,97410.13
2022-12-22T21:26:53.006Z,97408.63
2022-12-22T21:29:24.764Z,97408.63
2022-12-22T21:31:55.305Z,97398.97
2022-12-22T21:34:23.193Z,97401.69
2022-12-22T21:37:00.494Z,97395.63
2022-12-22T21:39:32.665Z,97399.41
2022-12-22T21:42:03.879Z,97391.78
2022-12-22T21:44:34.425Z,97390.66
2022-12-22T21:47:03.620Z,97394.44
2022-12-22T21:49:33.404Z,97389.69
2022-12-22T21:52:03.934Z,97382.66
2022-12-22T21:54:31.989Z,97384.44
2022-12-22T21:57:04.697Z,97380.41
2022-12-22T21:59:32.577Z,97382.31
2022-12-22T22:02:00.559Z,97386.88
2022-12-22T22:04:28.664Z,97372.78
2022-12-22T22:06:56.705Z,97364.88
2022-12-22T22:09:25.038Z,97366.00
2022-12-22T22:12:12.699Z,97359.69
2022-12-22T22:14:43.341Z,97355.31
2022-12-22T22:17:12.193Z,97360.56
2022-12-22T22:19:42.398Z,97356.53
2022-12-22T22:22:10.403Z,97357.56
2022-12-22T22:24:38.346Z,97361.25
2022-12-22T22:27:06.591Z,97345.56
2022-12-22T22:29:34.618Z,97352.47
2022-12-22T22:32:03.874Z,97355.66
2022-12-22T22:34:32.174Z,97347.03
2022-12-22T22:37:00.045Z,97351.59
2022-12-22T22:39:27.911Z,97344.03
2022-12-22T22:41:56.426Z,97349.31
2022-12-22T22:44:25.597Z,97327.56
2022-12-22T22:46:54.682Z,97330.28
2022-12-22T22:49:28.638Z,97331.44
2022-12-22T22:51:57.259Z,97325.97
2022-12-22T22:54:25.361Z,97311.06
2022-12-22T22:56:55.804Z,97305.38
2022-12-22T22:59:23.589Z,97310.91
2022-12-22T23:01:51.454Z,97305.66
2022-12-22T23:04:19.341Z,97305.56
2022-12-22T23:06:48.965Z,97304.06
2022-12-22T23:09:16.855Z,97296.97
2022-12-22T23:11:45.662Z,97310.19
2022-12-22T23:14:13.811Z,97297.25
2022-12-22T23:16:41.882Z,97293.28
2022-12-22T23:19:09.686Z,97288.00
2022-12-22T23:21:37.715Z,97287.06
2022-12-22T23:24:07.903Z,97280.13
2022-12-22T23:26:35.817Z,97279.09
2022-12-22T23:29:06.061Z,97283.22
2022-12-22T23:31:34.447Z,97270.06
2022-12-22T23:34:02.361Z,97272.94
2022-12-22T23:36:30.223Z,97267.41
2022-12-22T23:38:58.467Z,97265.75
2022-12-22T23:41:27.915Z,97262.66
2022-12-22T23:43:56.427Z,97261.34
2022-12-22T23:46:24.780Z,97257.41
2022-12-22T23:48:53.654Z,97253.03
2022-12-22T23:51:22.656Z,97250.78
2022-12-22T23:53:50.411Z,97245.16
2022-12-22T23:56:18.296Z,97241.13
2022-12-22T23:58:52.536Z,97252.00
